Time;durP1;ratioP1;P1;durP2;ratioP2;P2;SDS_P1;SDS_P2;PMS_P1;PMS_P2;Temp;Humidity;BMP_temperature;BMP_pressure;BME280_temperature;BME280_humidity;BME280_pressure;Samples;Min_cycle;Max_cycle;Signal;HPM_P1;HPM_P2
2022/04/05 00:00:18;;;;;;;16.70;3.70;;;5.30;89.30;;;;;;4880042;29;20184;-91
2022/04/05 00:02:44;;;;;;;18.23;3.77;;;5.30;88.70;;;;;;4881063;29;20643;-92
2022/04/05 00:05:10;;;;;;;24.90;5.13;;;5.30;88.20;;;;;;4881839;29;20234;-93
2022/04/05 00:07:35;;;;;;;24.60;3.77;;;5.40;88.30;;;;;;4896362;29;20191;-94
2022/04/05 00:10:01;;;;;;;12.50;3.17;;;5.30;88.50;;;;;;4888697;29;20182;-92
2022/04/05 00:12:26;;;;;;;17.87;3.97;;;5.30;88.50;;;;;;4892729;29;20186;-92
2022/04/05 00:14:52;;;;;;;19.70;3.60;;;5.30;88.10;;;;;;4894934;29;20295;-92
2022/04/05 00:17:18;;;;;;;18.47;4.13;;;5.30;88.20;;;;;;4895808;29;20215;-93
2022/04/05 00:19:44;;;;;;;23.47;3.47;;;5.20;88.50;;;;;;4893435;29;20190;-92
2022/04/05 00:22:09;;;;;;;20.33;3.77;;;5.20;88.50;;;;;;4898181;29;20191;-92
2022/04/05 00:24:35;;;;;;;16.43;4.57;;;5.20;88.60;;;;;;4901840;29;20174;-93
2022/04/05 00:27:01;;;;;;;25.73;3.27;;;5.10;88.70;;;;;;4902093;29;20200;-94
2022/04/05 00:29:26;;;;;;;27.43;4.63;;;5.10;88.80;;;;;;4901430;29;20194;-93
2022/04/05 00:31:52;;;;;;;17.17;3.07;;;5.00;88.80;;;;;;4898824;29;20179;-93
2022/04/05 00:34:18;;;;;;;22.33;5.03;;;5.00;88.90;;;;;;4898145;29;20269;-93
2022/04/05 00:36:44;;;;;;;23.23;3.47;;;5.00;88.70;;;;;;4897872;29;20206;-93
2022/04/05 00:39:10;;;;;;;20.50;3.67;;;5.00;88.50;;;;;;4898591;29;20277;-93
2022/04/05 00:41:37;;;;;;;24.60;3.53;;;5.00;88.50;;;;;;4899357;29;20173;-92
2022/04/05 00:44:02;;;;;;;15.40;3.13;;;5.00;88.30;;;;;;4900467;29;20170;-93
2022/04/05 00:46:28;;;;;;;15.37;2.80;;;5.00;88.20;;;;;;4900631;29;20210;-92
2022/04/05 00:48:57;;;;;;;20.13;3.70;;;5.00;88.20;;;;;;4899544;29;20275;-92
2022/04/05 00:51:23;;;;;;;18.23;4.00;;;5.00;88.30;;;;;;4897897;29;20186;-93
2022/04/05 00:53:53;;;;;;;30.80;4.00;;;5.00;88.30;;;;;;4899988;29;20227;-93
2022/04/05 00:56:20;;;;;;;15.13;2.73;;;5.00;88.40;;;;;;4900178;29;20218;-93
2022/04/05 00:58:55;;;;;;;18.63;3.40;;;5.00;88.50;;;;;;4901087;29;20187;-93
2022/04/05 01:01:22;;;;;;;18.33;3.63;;;5.10;88.40;;;;;;4900768;29;20185;-93
2022/04/05 01:03:50;;;;;;;17.17;3.33;;;5.10;88.50;;;;;;4899457;29;20190;-92
2022/04/05 01:06:38;;;;;;;26.90;4.03;;;5.00;88.70;;;;;;4897714;29;20199;-92
2022/04/05 01:09:03;;;;;;;15.63;3.50;;;5.00;88.90;;;;;;4896554;29;20177;-92
2022/04/05 01:11:32;;;;;;;14.33;2.83;;;5.10;89.00;;;;;;4885777;29;20250;-92
2022/04/05 01:13:57;;;;;;;14.87;2.70;;;5.00;89.20;;;;;;4889972;29;20210;-92
2022/04/05 01:16:23;;;;;;;14.70;3.43;;;5.00;89.30;;;;;;4889582;29;20183;-92
2022/04/05 01:18:49;;;;;;;17.80;3.27;;;4.90;89.10;;;;;;4886687;29;20193;-91
2022/04/05 01:21:15;;;;;;;20.37;4.20;;;5.00;88.70;;;;;;4888127;29;20186;-91
2022/04/05 01:24:19;;;;;;;11.23;2.80;;;4.90;87.90;;;;;;4890064;29;20225;-92
2022/04/05 01:26:49;;;;;;;11.07;2.63;;;4.80;87.70;;;;;;4892019;29;20653;-92
2022/04/05 01:29:17;;;;;;;13.60;2.53;;;4.70;87.60;;;;;;4893319;29;20178;-92
2022/04/05 01:31:44;;;;;;;13.87;3.07;;;4.60;87.60;;;;;;4897376;29;20182;-92
2022/04/05 01:34:11;;;;;;;10.80;2.13;;;4.60;87.60;;;;;;4897303;29;20213;-92
2022/04/05 01:36:51;;;;;;;12.70;2.20;;;4.50;87.70;;;;;;4898458;29;20258;-92
2022/04/05 01:39:19;;;;;;;11.43;2.10;;;4.50;87.80;;;;;;4895405;29;20194;-92
2022/04/05 01:41:46;;;;;;;9.33;2.47;;;4.50;87.90;;;;;;4896828;29;20197;-92
2022/04/05 01:44:13;;;;;;;11.37;2.10;;;4.60;87.90;;;;;;4894763;29;20182;-92
2022/04/05 01:46:39;;;;;;;13.10;2.53;;;4.60;87.90;;;;;;4898659;29;20198;-92
2022/04/05 01:49:10;;;;;;;12.33;2.87;;;4.60;88.00;;;;;;4893905;29;20223;-92
2022/04/05 01:51:37;;;;;;;17.10;2.70;;;4.70;88.00;;;;;;4893457;29;20221;-92
2022/04/05 01:54:05;;;;;;;9.17;3.20;;;4.80;88.20;;;;;;4895514;29;20210;-92
2022/04/05 01:56:41;;;;;;;10.57;2.20;;;4.80;88.30;;;;;;4897566;29;20214;-92
2022/04/05 01:59:06;;;;;;;11.57;2.53;;;4.80;88.50;;;;;;4894981;29;20282;-92
2022/04/05 02:01:32;;;;;;;20.17;2.90;;;4.80;88.70;;;;;;4894487;29;20191;-92
2022/04/05 02:03:58;;;;;;;12.00;2.77;;;4.80;88.80;;;;;;4907431;23;20607;-91
2022/04/05 02:06:24;;;;;;;16.37;3.23;;;4.80;89.10;;;;;;4863044;29;20597;-92
2022/04/05 02:08:50;;;;;;;21.37;3.47;;;4.90;89.20;;;;;;4863151;29;20270;-91
2022/04/05 02:11:16;;;;;;;17.13;4.13;;;4.90;89.00;;;;;;4864294;29;20210;-92
2022/04/05 02:13:41;;;;;;;14.97;2.73;;;4.90;89.10;;;;;;4862975;29;20219;-91
2022/04/05 02:16:07;;;;;;;15.43;3.20;;;4.90;89.20;;;;;;4863059;29;20200;-91
2022/04/05 02:18:35;;;;;;;18.60;2.83;;;4.90;89.20;;;;;;4863335;29;20190;-92
2022/04/05 02:21:01;;;;;;;20.77;3.03;;;4.90;89.40;;;;;;4865110;29;20183;-92
2022/04/05 02:23:27;;;;;;;20.97;3.27;;;4.90;89.20;;;;;;4864491;29;20556;-88
2022/04/05 02:25:52;;;;;;;19.57;3.20;;;4.90;88.80;;;;;;4866138;29;20268;-91
2022/04/05 02:28:18;;;;;;;11.90;2.43;;;4.80;88.40;;;;;;4863867;29;20226;-92
2022/04/05 02:30:43;;;;;;;13.27;2.53;;;4.90;87.90;;;;;;4863546;29;20658;-91
2022/04/05 02:33:09;;;;;;;19.20;2.87;;;4.90;87.60;;;;;;4864066;29;20211;-91
2022/04/05 02:35:36;;;;;;;12.60;2.33;;;4.80;87.20;;;;;;4863004;29;20241;-91
2022/04/05 02:38:03;;;;;;;11.50;2.30;;;4.80;86.50;;;;;;4863798;29;20230;-92
2022/04/05 02:40:28;;;;;;;15.70;3.93;;;4.80;86.70;;;;;;4863076;29;20184;-91
2022/04/05 02:42:54;;;;;;;11.93;2.43;;;4.80;86.60;;;;;;4863072;29;20232;-91
2022/04/05 02:45:20;;;;;;;11.07;3.23;;;4.80;86.50;;;;;;4862757;29;20203;-92
2022/04/05 02:47:46;;;;;;;15.30;2.80;;;4.80;86.50;;;;;;4862627;29;20187;-92
2022/04/05 02:50:14;;;;;;;13.70;2.80;;;4.70;86.40;;;;;;4862489;29;20190;-92
2022/04/05 02:52:39;;;;;;;19.53;2.73;;;4.80;86.70;;;;;;4862676;29;20717;-92
2022/04/05 02:55:05;;;;;;;15.93;2.97;;;4.70;87.00;;;;;;4862309;29;20309;-92
2022/04/05 02:57:35;;;;;;;12.70;2.77;;;4.70;87.10;;;;;;4862813;29;20190;-91
2022/04/05 03:00:01;;;;;;;15.93;2.43;;;4.60;87.20;;;;;;4862261;29;20219;-91
2022/04/05 03:02:27;;;;;;;10.53;2.40;;;4.60;87.30;;;;;;4862572;29;20218;-91
2022/04/05 03:04:54;;;;;;;8.90;1.93;;;4.50;87.40;;;;;;4862107;29;20225;-91
2022/04/05 03:07:20;;;;;;;20.97;3.90;;;4.50;87.60;;;;;;4861714;29;20194;-92
2022/04/05 03:09:45;;;;;;;16.30;2.73;;;4.50;87.50;;;;;;4862040;29;20176;-91
2022/04/05 03:12:11;;;;;;;20.77;3.40;;;4.50;87.50;;;;;;4862183;29;20187;-92
2022/04/05 03:14:39;;;;;;;10.70;2.43;;;4.40;87.50;;;;;;4861827;29;20218;-91
2022/04/05 03:17:04;;;;;;;14.80;2.90;;;4.40;87.40;;;;;;4862436;29;20207;-92
2022/04/05 03:19:30;;;;;;;11.40;2.17;;;4.40;87.40;;;;;;4862472;29;20680;-92
2022/04/05 03:21:56;;;;;;;16.80;2.40;;;4.40;87.20;;;;;;4862705;29;20189;-91
2022/04/05 03:24:21;;;;;;;24.53;3.53;;;4.30;87.20;;;;;;4863154;29;20234;-90
2022/04/05 03:26:47;;;;;;;17.30;3.07;;;4.30;86.70;;;;;;4863318;29;20207;-92
2022/04/05 03:29:12;;;;;;;19.90;2.97;;;4.30;86.50;;;;;;4862393;29;20246;-92
2022/04/05 03:31:38;;;;;;;22.70;3.10;;;4.30;86.40;;;;;;4862248;29;20182;-92
2022/04/05 03:34:03;;;;;;;14.57;3.97;;;4.30;86.10;;;;;;4862530;29;20211;-92
2022/04/05 03:36:29;;;;;;;16.67;2.80;;;4.40;85.70;;;;;;4862246;29;20253;-92
2022/04/05 03:38:54;;;;;;;23.67;3.80;;;4.40;85.80;;;;;;4862487;29;20183;-93
2022/04/05 03:41:21;;;;;;;9.00;2.30;;;4.40;85.60;;;;;;4862986;29;20174;-91
2022/04/05 03:43:46;;;;;;;13.83;2.77;;;4.40;85.60;;;;;;4863701;29;20202;-92
2022/04/05 03:46:12;;;;;;;6.23;1.67;;;4.40;85.60;;;;;;4862201;29;20277;-92
2022/04/05 03:48:37;;;;;;;15.23;2.57;;;4.50;85.70;;;;;;4861927;29;20203;-93
2022/04/05 03:51:09;;;;;;;13.50;2.50;;;4.50;85.40;;;;;;4862111;29;20190;-92
2022/04/05 03:53:35;;;;;;;11.57;2.43;;;4.50;85.20;;;;;;4862011;29;20708;-92
2022/04/05 03:56:00;;;;;;;20.47;3.10;;;4.40;85.40;;;;;;4861931;29;20183;-92
2022/04/05 03:58:26;;;;;;;16.63;2.53;;;4.40;85.60;;;;;;4861510;29;20249;-92
2022/04/05 04:00:51;;;;;;;11.90;2.33;;;4.40;85.50;;;;;;4862115;29;20185;-91
2022/04/05 04:03:17;;;;;;;14.67;2.87;;;4.40;85.70;;;;;;4861482;29;20183;-92
2022/04/05 04:05:43;;;;;;;14.70;3.20;;;4.40;86.00;;;;;;4863086;29;20191;-91
2022/04/05 04:08:08;;;;;;;17.57;3.40;;;4.40;86.00;;;;;;4861520;29;20194;-92
2022/04/05 04:10:34;;;;;;;19.20;3.20;;;4.40;86.10;;;;;;4861850;29;20766;-91
2022/04/05 04:12:59;;;;;;;19.77;3.40;;;4.30;86.40;;;;;;4861664;29;20688;-93
2022/04/05 04:15:25;;;;;;;15.70;3.03;;;4.20;86.80;;;;;;4861505;29;20214;-91
2022/04/05 04:17:50;;;;;;;19.70;3.37;;;4.20;87.10;;;;;;4861586;29;20239;-91
2022/04/05 04:20:16;;;;;;;17.50;3.00;;;4.10;87.20;;;;;;4861952;29;20215;-92
2022/04/05 04:22:41;;;;;;;20.07;2.70;;;4.10;87.50;;;;;;4861752;29;20267;-91
2022/04/05 04:25:07;;;;;;;15.43;3.03;;;4.10;87.50;;;;;;4861161;29;20254;-91
2022/04/05 04:27:34;;;;;;;14.43;2.73;;;4.00;87.40;;;;;;4860750;29;20186;-91
2022/04/05 04:30:00;;;;;;;17.90;3.30;;;4.00;87.40;;;;;;4861009;29;20186;-92
2022/04/05 04:32:26;;;;;;;22.00;2.73;;;4.00;87.40;;;;;;4860833;29;20570;-91
2022/04/05 04:34:51;;;;;;;11.90;2.60;;;3.90;87.40;;;;;;4860763;29;20218;-91
2022/04/05 04:37:17;;;;;;;19.20;3.47;;;4.00;87.20;;;;;;4861077;29;20269;-90
2022/04/05 04:39:43;;;;;;;14.77;2.40;;;4.00;87.00;;;;;;4862088;29;20273;-92
2022/04/05 04:42:09;;;;;;;13.07;2.33;;;3.90;87.00;;;;;;4861075;29;20225;-91
2022/04/05 04:44:35;;;;;;;14.17;2.80;;;4.00;87.10;;;;;;4861009;29;20785;-92
2022/04/05 04:47:00;;;;;;;12.50;2.30;;;4.00;87.30;;;;;;4861086;29;20220;-91
2022/04/05 04:49:26;;;;;;;17.77;2.67;;;4.00;87.40;;;;;;4860718;29;20194;-92
2022/04/05 04:51:51;;;;;;;12.43;2.40;;;4.10;87.10;;;;;;4860826;29;20178;-91
2022/04/05 04:54:17;;;;;;;18.13;3.40;;;4.10;87.20;;;;;;4860545;29;20206;-91
2022/04/05 04:56:42;;;;;;;16.67;3.07;;;4.20;87.30;;;;;;4861056;29;20721;-91
2022/04/05 04:59:08;;;;;;;9.93;2.77;;;4.20;87.40;;;;;;4861782;29;20562;-91
2022/04/05 05:01:34;;;;;;;9.80;2.37;;;4.20;87.90;;;;;;4865412;29;20658;-91
2022/04/05 05:04:00;;;;;;;13.33;2.83;;;4.10;88.20;;;;;;4866553;29;20226;-91
2022/04/05 05:06:25;;;;;;;14.17;2.77;;;4.00;88.40;;;;;;4867029;29;20194;-92
2022/04/05 05:08:51;;;;;;;13.93;2.43;;;3.90;88.70;;;;;;4867025;29;20182;-93
2022/04/05 05:11:16;;;;;;;18.33;2.80;;;3.90;88.70;;;;;;4866745;29;20613;-93
2022/04/05 05:13:42;;;;;;;18.53;3.33;;;3.90;88.70;;;;;;4866636;29;20214;-92
2022/04/05 05:16:08;;;;;;;14.07;3.00;;;3.90;88.70;;;;;;4866826;29;20182;-92
2022/04/05 05:18:33;;;;;;;17.80;3.37;;;3.90;88.80;;;;;;4867688;29;20178;-91
2022/04/05 05:20:59;;;;;;;18.93;3.00;;;3.90;88.90;;;;;;4866855;29;20182;-92
2022/04/05 05:23:24;;;;;;;10.27;2.13;;;4.00;88.70;;;;;;4867115;29;20182;-91
2022/04/05 05:25:50;;;;;;;20.43;3.30;;;4.00;88.80;;;;;;4866637;29;20573;-92
2022/04/05 05:28:16;;;;;;;21.77;3.43;;;4.00;88.90;;;;;;4866766;29;20190;-93
2022/04/05 05:30:41;;;;;;;19.10;2.90;;;4.10;89.00;;;;;;4866878;29;20182;-92
2022/04/05 05:33:07;;;;;;;14.80;3.07;;;4.20;88.90;;;;;;4866902;29;20189;-91
2022/04/05 05:35:33;;;;;;;9.53;3.10;;;4.20;88.90;;;;;;4866519;29;20233;-91
2022/04/05 05:37:59;;;;;;;16.37;2.50;;;4.30;88.70;;;;;;4866985;29;20553;-91
2022/04/05 05:40:25;;;;;;;20.50;2.50;;;4.30;88.60;;;;;;4867866;29;20198;-92
2022/04/05 05:42:53;;;;;;;16.63;3.00;;;4.30;88.80;;;;;;4866648;29;20187;-91
2022/04/05 05:45:19;;;;;;;16.83;3.63;;;4.30;88.80;;;;;;4866897;29;20202;-91
2022/04/05 05:47:45;;;;;;;18.57;3.30;;;4.30;88.60;;;;;;4868014;29;20217;-91
2022/04/05 05:50:12;;;;;;;12.63;3.37;;;4.30;88.20;;;;;;4866512;29;20187;-92
2022/04/05 05:52:42;;;;;;;17.60;2.60;;;4.30;88.20;;;;;;4866613;29;20244;-92
2022/04/05 05:55:09;;;;;;;14.20;2.50;;;4.30;88.30;;;;;;4866128;29;20216;-91
2022/04/05 05:57:35;;;;;;;10.20;2.57;;;4.30;88.10;;;;;;4866392;29;20214;-91
2022/04/05 06:00:03;;;;;;;19.80;3.00;;;4.40;87.70;;;;;;4866862;29;20179;-90
2022/04/05 06:02:29;;;;;;;13.57;2.53;;;4.40;87.30;;;;;;4867335;29;20187;-90
2022/04/05 06:04:54;;;;;;;12.13;2.30;;;4.50;86.80;;;;;;4866190;29;20229;-90
2022/04/05 06:07:20;;;;;;;23.90;3.47;;;4.60;86.30;;;;;;4866520;29;20573;-90
2022/04/05 06:09:45;;;;;;;13.20;2.47;;;4.60;86.40;;;;;;4867690;29;20186;-92
2022/04/05 06:12:11;;;;;;;13.20;2.40;;;4.60;86.80;;;;;;4865493;29;20252;-91
2022/04/05 06:14:38;;;;;;;18.27;2.90;;;4.70;87.00;;;;;;4863864;29;20276;-92
2022/04/05 06:17:04;;;;;;;8.87;2.67;;;4.60;87.40;;;;;;4864371;29;20185;-92
2022/04/05 06:19:30;;;;;;;17.67;2.57;;;4.60;87.80;;;;;;4863821;29;20178;-92
2022/04/05 06:21:56;;;;;;;11.30;2.37;;;4.60;87.90;;;;;;4863633;29;20182;-92
2022/04/05 06:24:21;;;;;;;11.00;2.50;;;4.70;88.00;;;;;;4864025;29;20206;-91
2022/04/05 06:26:47;;;;;;;13.33;2.53;;;4.70;88.10;;;;;;4863427;29;20230;-91
2022/04/05 06:29:12;;;;;;;8.83;1.97;;;4.70;87.80;;;;;;4862818;29;20184;-90
2022/04/05 06:31:38;;;;;;;15.83;2.77;;;4.80;87.80;;;;;;4863116;29;20198;-91
2022/04/05 06:34:03;;;;;;;11.70;2.47;;;4.70;87.30;;;;;;4863296;29;20560;-91
2022/04/05 06:36:32;;;;;;;13.30;2.30;;;4.80;86.50;;;;;;4863377;29;20267;-93
2022/04/05 06:38:57;;;;;;;6.40;1.97;;;4.80;87.10;;;;;;4863919;29;20661;-92
2022/04/05 06:41:23;;;;;;;12.33;2.80;;;4.90;87.30;;;;;;4863319;29;20253;-92
2022/04/05 06:43:48;;;;;;;14.33;2.40;;;4.90;87.40;;;;;;4863915;29;20689;-91
2022/04/05 06:46:15;;;;;;;9.63;2.50;;;4.90;87.60;;;;;;4863944;29;20277;-92
2022/04/05 06:48:41;;;;;;;8.73;1.97;;;5.00;87.80;;;;;;4864052;29;20214;-92
2022/04/05 06:51:06;;;;;;;15.17;3.03;;;4.90;87.80;;;;;;4863061;29;20186;-90
2022/04/05 06:53:32;;;;;;;15.87;2.27;;;4.90;87.70;;;;;;4864348;29;20219;-87
2022/04/05 06:55:59;;;;;;;12.37;2.30;;;5.00;87.80;;;;;;4867492;29;20180;-92
2022/04/05 06:58:24;;;;;;;11.60;3.53;;;4.90;87.50;;;;;;4864922;29;20217;-91
2022/04/05 07:00:50;;;;;;;10.97;2.60;;;5.00;87.80;;;;;;4868225;29;20188;-92
2022/04/05 07:03:16;;;;;;;8.20;2.30;;;5.10;87.90;;;;;;4864804;29;20194;-90
2022/04/05 07:05:41;;;;;;;11.90;2.73;;;5.00;87.50;;;;;;4862743;29;20220;-91
2022/04/05 07:08:10;;;;;;;10.20;2.03;;;5.20;87.60;;;;;;4863466;29;20184;-91
2022/04/05 07:10:36;;;;;;;13.67;2.70;;;5.20;87.40;;;;;;4863131;29;20203;-89
2022/04/05 07:13:01;;;;;;;13.77;2.83;;;5.20;87.30;;;;;;4863379;29;20191;-92
2022/04/05 07:15:27;;;;;;;9.70;2.73;;;5.30;87.50;;;;;;4862764;29;20266;-91
2022/04/05 07:17:52;;;;;;;13.47;2.53;;;5.40;87.50;;;;;;4863352;29;20224;-91
2022/04/05 07:20:18;;;;;;;13.27;2.73;;;5.50;87.40;;;;;;4862688;29;20246;-91
2022/04/05 07:22:48;;;;;;;18.37;2.87;;;5.50;87.10;;;;;;4862503;29;20195;-91
2022/04/05 07:25:19;;;;;;;15.73;2.57;;;5.50;86.90;;;;;;4861708;29;20695;-91
2022/04/05 07:27:46;;;;;;;13.87;2.70;;;5.60;86.90;;;;;;4863288;29;20185;-92
2022/04/05 07:30:13;;;;;;;11.83;2.47;;;5.80;87.10;;;;;;4862224;29;20189;-92
2022/04/05 07:32:41;;;;;;;17.73;2.53;;;5.80;86.80;;;;;;4862799;29;20199;-91
2022/04/05 07:35:07;;;;;;;15.47;2.50;;;5.80;86.70;;;;;;4862258;29;20271;-91
2022/04/05 07:37:33;;;;;;;18.93;3.07;;;5.80;86.30;;;;;;4862405;29;20189;-92
2022/04/05 07:39:59;;;;;;;11.53;2.90;;;5.80;86.30;;;;;;4862413;29;20185;-92
2022/04/05 07:42:26;;;;;;;24.87;4.60;;;5.80;86.30;;;;;;4863038;29;20326;-91
2022/04/05 07:44:51;;;;;;;11.40;2.50;;;5.80;85.90;;;;;;4862536;29;20209;-91
2022/04/05 07:47:17;;;;;;;9.97;2.53;;;5.80;86.00;;;;;;4862912;29;20195;-92
2022/04/05 07:49:43;;;;;;;13.33;2.47;;;5.80;85.80;;;;;;4862689;29;20280;-92
2022/04/05 07:52:08;;;;;;;14.47;2.60;;;5.80;85.20;;;;;;4862990;29;20280;-92
2022/04/05 07:54:34;;;;;;;14.03;2.80;;;5.70;85.60;;;;;;4862431;29;20207;-90
2022/04/05 07:57:02;;;;;;;12.80;2.53;;;5.70;85.60;;;;;;4863346;29;20275;-88
2022/04/05 07:59:27;;;;;;;18.17;2.77;;;5.80;86.20;;;;;;4863174;29;20216;-91
2022/04/05 08:01:53;;;;;;;12.43;2.40;;;5.80;86.30;;;;;;4862421;29;20181;-91
2022/04/05 08:04:18;;;;;;;10.67;2.63;;;6.00;85.80;;;;;;4866743;29;20232;-93
2022/04/05 08:06:44;;;;;;;12.60;2.80;;;6.30;85.50;;;;;;4909089;23;20297;-91
2022/04/05 08:09:09;;;;;;;13.57;2.37;;;6.40;85.40;;;;;;4882061;29;20656;-90
2022/04/05 08:11:35;;;;;;;13.50;2.53;;;6.30;83.00;;;;;;4880583;29;20205;-90
2022/04/05 08:14:01;;;;;;;6.57;1.53;;;6.30;82.10;;;;;;4880235;29;20245;-91
2022/04/05 08:16:27;;;;;;;4.10;1.70;;;6.30;81.70;;;;;;4880700;29;20209;-91
2022/04/05 08:18:52;;;;;;;13.37;3.83;;;6.30;80.40;;;;;;4879753;29;20667;-90
2022/04/05 08:21:18;;;;;;;12.70;4.40;;;6.30;81.50;;;;;;4880039;29;20195;-92
2022/04/05 08:23:44;;;;;;;20.23;7.90;;;6.10;82.10;;;;;;4880575;29;20249;-91
2022/04/05 08:26:11;;;;;;;16.97;5.93;;;5.90;83.20;;;;;;4863969;29;20225;-92
2022/04/05 08:28:37;;;;;;;23.97;7.57;;;5.80;84.20;;;;;;4878996;29;20185;-92
2022/04/05 08:31:02;;;;;;;22.17;4.87;;;5.80;85.00;;;;;;4879087;29;20269;-91
2022/04/05 08:33:28;;;;;;;15.60;6.07;;;5.80;85.50;;;;;;4879176;29;20199;-92
2022/04/05 08:35:55;;;;;;;22.37;6.43;;;6.00;86.20;;;;;;4879476;29;20215;-91
2022/04/05 08:38:21;;;;;;;15.57;4.30;;;6.10;86.50;;;;;;4878947;29;20193;-91
2022/04/05 08:40:46;;;;;;;22.00;4.60;;;6.10;86.30;;;;;;4879057;29;20535;-91
2022/04/05 08:43:12;;;;;;;20.13;5.70;;;6.20;86.70;;;;;;4878910;29;20185;-92
2022/04/05 08:45:40;;;;;;;34.07;9.73;;;6.20;86.50;;;;;;4878728;29;20644;-91
2022/04/05 08:48:10;;;;;;;19.70;5.73;;;6.30;86.30;;;;;;4879024;29;20193;-91
2022/04/05 08:50:36;;;;;;;45.40;16.13;;;6.20;85.70;;;;;;4879079;29;20185;-91
2022/04/05 08:53:01;;;;;;;40.67;17.03;;;6.20;85.80;;;;;;4879256;29;20276;-91
2022/04/05 08:55:28;;;;;;;37.50;18.40;;;6.10;85.10;;;;;;4878664;29;20240;-91
2022/04/05 08:57:55;;;;;;;24.93;11.90;;;6.10;85.20;;;;;;4878866;29;20642;-92
2022/04/05 09:00:22;;;;;;;16.63;5.23;;;6.00;85.40;;;;;;4878787;29;20562;-90
2022/04/05 09:02:58;;;;;;;18.37;5.03;;;5.90;85.50;;;;;;4878899;29;20637;-90
2022/04/05 09:05:32;;;;;;;8.77;2.70;;;5.90;86.20;;;;;;4878622;29;20240;-91
2022/04/05 09:08:16;;;;;;;13.50;2.33;;;5.80;86.70;;;;;;4879203;29;20232;-90
2022/04/05 09:10:43;;;;;;;13.13;4.00;;;5.70;87.50;;;;;;4878976;29;20201;-91
2022/04/05 09:13:15;;;;;;;9.63;1.97;;;5.80;87.70;;;;;;4878789;29;20188;-91
2022/04/05 09:15:42;;;;;;;10.70;2.93;;;5.90;87.50;;;;;;4878379;29;20213;-91
2022/04/05 09:18:08;;;;;;;9.77;3.00;;;6.20;88.10;;;;;;4879663;29;20194;-91
2022/04/05 09:20:48;;;;;;;11.30;2.67;;;6.30;88.00;;;;;;4879663;29;20245;-91
2022/04/05 09:23:28;;;;;;;7.30;2.20;;;6.10;87.70;;;;;;4878336;29;20189;-91
2022/04/05 09:25:58;;;;;;;11.97;2.50;;;6.00;87.40;;;;;;4878280;29;20213;-91
2022/04/05 09:28:29;;;;;;;15.13;2.50;;;5.80;87.70;;;;;;4878421;29;20188;-90
2022/04/05 09:31:04;;;;;;;6.07;2.10;;;5.80;88.10;;;;;;4878330;29;20193;-91
2022/04/05 09:33:32;;;;;;;16.17;3.27;;;5.90;88.50;;;;;;4878495;29;20184;-92
2022/04/05 09:36:03;;;;;;;16.90;2.23;;;6.00;88.60;;;;;;4878363;29;20209;-92
2022/04/05 09:38:29;;;;;;;14.07;2.60;;;6.10;88.50;;;;;;4878367;29;20178;-90
2022/04/05 09:41:07;;;;;;;8.80;2.73;;;6.30;88.70;;;;;;4878698;29;20177;-89
2022/04/05 09:43:33;;;;;;;12.77;2.57;;;6.30;88.20;;;;;;4878812;29;20184;-90
2022/04/05 09:46:01;;;;;;;10.70;2.20;;;6.40;87.90;;;;;;4878941;29;20202;-91
2022/04/05 09:48:31;;;;;;;15.20;3.13;;;6.30;86.90;;;;;;4886924;29;20213;-92
2022/04/05 09:51:03;;;;;;;6.80;2.17;;;6.50;87.00;;;;;;4890313;29;20221;-91
2022/04/05 09:53:51;;;;;;;9.87;2.30;;;6.40;85.90;;;;;;4883254;29;20170;-91
2022/04/05 09:56:23;;;;;;;7.97;2.67;;;6.50;85.90;;;;;;4882091;29;20220;-91
2022/04/05 09:59:02;;;;;;;11.13;1.97;;;6.30;85.10;;;;;;4881507;29;20181;-90
2022/04/05 10:01:29;;;;;;;10.40;2.63;;;6.50;86.10;;;;;;4881554;29;20272;-91
2022/04/05 10:04:02;;;;;;;3.83;1.90;;;6.40;86.30;;;;;;4881507;29;20618;-88
2022/04/05 10:06:30;;;;;;;12.43;2.10;;;6.60;86.70;;;;;;4881681;29;20217;-89
2022/04/05 10:09:02;;;;;;;10.20;2.13;;;6.70;86.30;;;;;;4882872;29;20261;-89
2022/04/05 10:11:30;;;;;;;9.37;1.80;;;6.70;86.30;;;;;;4882907;29;20219;-89
2022/04/05 10:13:57;;;;;;;9.47;2.30;;;6.70;86.10;;;;;;4881568;29;20759;-89
2022/04/05 10:16:31;;;;;;;8.37;2.10;;;6.70;85.60;;;;;;4881828;29;20197;-89
2022/04/05 10:18:59;;;;;;;8.47;2.30;;;6.80;85.90;;;;;;4881618;29;20546;-90
2022/04/05 10:21:27;;;;;;;7.70;2.03;;;6.80;85.90;;;;;;4882479;29;20180;-90
2022/04/05 10:23:55;;;;;;;16.50;1.80;;;6.70;85.40;;;;;;4883260;29;20171;-91
2022/04/05 10:26:24;;;;;;;10.13;2.80;;;6.70;85.10;;;;;;4881170;29;20212;-90
2022/04/05 10:28:52;;;;;;;9.67;2.10;;;6.80;85.70;;;;;;4881144;29;20189;-90
2022/04/05 10:31:28;;;;;;;14.50;2.67;;;6.80;85.30;;;;;;4880830;29;20182;-91
2022/04/05 10:34:24;;;;;;;8.07;2.00;;;6.70;84.70;;;;;;4880770;29;20627;-92
2022/04/05 10:37:08;;;;;;;8.77;2.00;;;6.80;84.90;;;;;;4882049;29;20193;-88
2022/04/05 10:39:33;;;;;;;5.07;2.13;;;6.60;84.40;;;;;;4881486;29;20223;-92
2022/04/05 10:42:08;;;;;;;8.00;1.40;;;6.60;84.50;;;;;;4883268;29;20181;-91
2022/04/05 10:44:38;;;;;;;10.97;2.23;;;6.30;84.50;;;;;;4881519;29;20185;-89
2022/04/05 10:47:06;;;;;;;6.60;1.70;;;6.20;84.90;;;;;;4882693;29;20242;-90
2022/04/05 10:49:43;;;;;;;7.33;2.03;;;6.40;85.50;;;;;;4882897;29;20660;-91
2022/04/05 10:52:15;;;;;;;5.90;1.73;;;6.30;85.20;;;;;;4886755;29;20188;-92
2022/04/05 10:54:49;;;;;;;9.40;2.20;;;6.30;85.40;;;;;;4883214;29;20213;-91
2022/04/05 10:57:29;;;;;;;7.07;1.90;;;6.10;84.90;;;;;;4882769;29;20220;-92
2022/04/05 11:00:20;;;;;;;6.87;2.17;;;6.30;85.70;;;;;;4880303;29;20180;-90
2022/04/05 11:02:53;;;;;;;13.10;3.10;;;6.30;85.90;;;;;;4875983;29;20193;-90
2022/04/05 11:05:19;;;;;;;10.40;2.40;;;6.50;86.20;;;;;;4881680;29;20248;-90
2022/04/05 11:07:54;;;;;;;13.03;2.53;;;6.60;85.80;;;;;;4880885;29;20226;-90
2022/04/05 11:10:26;;;;;;;14.97;2.97;;;6.50;85.60;;;;;;4880763;29;20264;-91
2022/04/05 11:13:19;;;;;;;6.10;1.77;;;6.50;85.20;;;;;;4880598;29;20182;-89
2022/04/05 11:15:53;;;;;;;8.77;3.43;;;6.60;85.00;;;;;;4881092;29;20209;-91
2022/04/05 11:18:25;;;;;;;10.17;1.87;;;6.50;84.80;;;;;;4880605;29;20180;-89
2022/04/05 11:20:52;;;;;;;9.63;2.20;;;6.70;85.30;;;;;;4881201;29;20263;-90
2022/04/05 11:23:19;;;;;;;8.43;1.93;;;6.80;85.30;;;;;;4881555;29;20760;-91
2022/04/05 11:25:48;;;;;;;6.77;2.00;;;6.70;84.90;;;;;;4881916;29;20181;-89
2022/04/05 11:28:21;;;;;;;7.30;1.63;;;6.80;85.20;;;;;;4880766;29;20192;-88
2022/04/05 11:31:00;;;;;;;4.97;1.77;;;6.80;84.60;;;;;;4881136;29;20173;-91
2022/04/05 11:33:31;;;;;;;3.90;1.50;;;6.70;84.30;;;;;;4881832;29;20159;-91
2022/04/05 11:35:58;;;;;;;7.13;1.87;;;6.60;83.50;;;;;;4880142;29;20213;-89
2022/04/05 11:38:26;;;;;;;8.40;1.87;;;6.60;83.70;;;;;;4880472;29;20174;-91
2022/04/05 11:40:56;;;;;;;12.33;1.50;;;6.60;84.00;;;;;;4879780;29;20183;-89
2022/04/05 11:43:30;;;;;;;8.53;2.20;;;6.70;83.80;;;;;;4879720;29;20660;-89
2022/04/05 11:46:12;;;;;;;4.87;2.00;;;6.70;84.40;;;;;;4879836;29;20251;-89
2022/04/05 11:48:44;;;;;;;5.77;2.30;;;6.70;85.50;;;;;;4879861;29;20560;-90
2022/04/05 11:51:13;;;;;;;6.07;1.70;;;6.70;83.90;;;;;;4881054;29;20177;-90
2022/04/05 11:53:38;;;;;;;6.97;1.73;;;6.80;84.30;;;;;;4880921;29;20185;-92
2022/04/05 11:56:12;;;;;;;5.33;1.70;;;6.60;83.50;;;;;;4879699;29;20201;-90
2022/04/05 11:58:40;;;;;;;5.53;1.50;;;6.70;84.60;;;;;;4881014;29;20249;-88
2022/04/05 12:01:08;;;;;;;4.67;2.03;;;6.80;85.00;;;;;;4879547;29;20640;-87
2022/04/05 12:03:41;;;;;;;4.07;1.93;;;6.70;85.20;;;;;;4880778;29;20170;-89
2022/04/05 12:06:07;;;;;;;8.17;1.83;;;6.90;85.90;;;;;;4879387;29;20241;-90
2022/04/05 12:08:33;;;;;;;9.40;1.73;;;6.60;85.10;;;;;;4879371;29;20228;-90
2022/04/05 12:10:59;;;;;;;5.80;1.73;;;6.70;85.80;;;;;;4878603;29;20182;-89
2022/04/05 12:13:34;;;;;;;7.10;1.90;;;6.70;85.50;;;;;;4879370;29;20558;-88
2022/04/05 12:16:01;;;;;;;12.67;2.23;;;6.70;85.60;;;;;;4879960;29;20223;-88
2022/04/05 12:18:28;;;;;;;7.50;1.80;;;6.70;85.70;;;;;;4879220;29;20273;-88
2022/04/05 12:20:59;;;;;;;6.83;2.50;;;6.80;86.30;;;;;;4879209;29;20177;-89
2022/04/05 12:23:52;;;;;;;6.47;2.17;;;6.90;86.20;;;;;;4880484;29;20207;-91
2022/04/05 12:26:24;;;;;;;5.37;1.40;;;6.80;86.30;;;;;;4877975;29;20719;-90
2022/04/05 12:28:53;;;;;;;7.10;2.07;;;6.80;85.20;;;;;;4880269;29;20249;-88
2022/04/05 12:31:21;;;;;;;8.27;2.43;;;6.80;85.60;;;;;;4880024;29;20177;-89
2022/04/05 12:33:59;;;;;;;6.20;1.47;;;6.80;85.60;;;;;;4879975;29;20182;-89
2022/04/05 12:36:32;;;;;;;8.07;1.83;;;6.70;85.00;;;;;;4878903;29;20201;-88
2022/04/05 12:38:58;;;;;;;8.03;2.87;;;6.60;85.50;;;;;;4879294;29;20205;-89
2022/04/05 12:41:24;;;;;;;6.13;2.00;;;6.50;86.00;;;;;;4878762;29;20700;-89
2022/04/05 12:44:11;;;;;;;6.47;2.17;;;6.40;86.80;;;;;;4878753;29;20185;-90
2022/04/05 12:46:50;;;;;;;8.27;2.60;;;6.30;87.10;;;;;;4879742;29;20676;-92
2022/04/05 12:49:20;;;;;;;9.10;2.30;;;6.30;87.70;;;;;;4879026;29;20312;-90
2022/04/05 12:51:46;;;;;;;7.17;2.07;;;6.40;87.80;;;;;;4880517;29;20213;-91
2022/04/05 12:54:28;;;;;;;6.80;1.90;;;6.50;88.00;;;;;;4878759;29;20578;-90